SBGO/GYN METAR and TAF weather

Enter ICAO airport designator
Station Type Date Time Source
SBGO METAR 2020/04/05 13:00 UTC NOAA

SBGO 051300Z 15005KT 9999 FEW040 28/22 Q1019


Station Type Date Time Source
SBGO Decoded METAR 2020/04/05 13:00 UTC NOAA

Goiania Aeroporto , Brazil (SBGO) 16-38S 049-13W
Apr 05, 2020 - 09:00 AM EDT / 2020.04.05 1300 UTC
Wind: from the SSE (150 degrees) at 6 MPH (5 KT):0
Visibility: greater than 7 mile(s):0
Sky conditions: mostly clear
Temperature: 82 F (28 C)
Dew Point: 71 F (22 C)
Relative Humidity: 69%
Pressure (altimeter): 30.09 in. Hg (1019 hPa)
ob: SBGO 051300Z 15005KT 9999 FEW040 28/22 Q1019
cycle: 13

Station Type Date Time Source
SBGO TAF 2020/04/05 12:24 UTC NOAA

TAF TAF SBGO 050900Z 0512/0612 12005KT 9999 SCT040 TX30/0518Z TN23/0608Z
BECMG 0515/0517 SCT040 FEW045TCU PROB30
TEMPO 0518/0521 VCSH
BECMG 0521/0523 CAVOK
RMK PEL

Example: see airport list